Ems Express — WDC6662 — position and weather

sailwx.info

Track history (hours):
 
Tides and Currents Weather Stations Pressure Air Temp Water Temp Dewpoint Dewpoint Depression Visibility Wind Speed Wind Dir Waves Ship Positions

Ems Express

Owner: Marquette Transportation Company Gulf-Inland, LLC, Jefferson, LA. More information available from US FCC via Universal Licensing System and Coast Guard Vessel Documentation Center.

Last reported at 2018-Feb-22 01:40 UTC. Time now 2018-Feb-22 03:05 UTC.
Position N 29°32' W 090°50'.

Length 22 m; draft 2.7 m.

Type: . MMSI: 367059310.

Date/timePositionNaut miles runAvg speedWind from/ knotsBaromVisibWave heightAir tempDewpointWater temp
2018-Feb-22 01:40N 29°32' W 090°50'2 6.3
2018-Feb-22 01:20N 29°32' W 090°47'2 5.5
2018-Feb-22 01:00N 29°33' W 090°45'3 5.2
2018-Feb-22 00:30N 29°34' W 090°43'2 3.4
2018-Feb-22 00:00N 29°36' W 090°43'1 2.6
2018-Feb-21 23:30N 29°37' W 090°41'0 0.0
2018-Feb-21 23:00N 29°37' W 090°41'0 0.0
2018-Feb-21 22:30N 29°37' W 090°41'0 0.0
2018-Feb-21 22:00N 29°37' W 090°41'0 0.0
2018-Feb-21 21:30N 29°37' W 090°41'0 0.0
2018-Feb-21 21:00N 29°37' W 090°41'0 0.0
2018-Feb-21 20:30N 29°37' W 090°41'0 0.0
2018-Feb-21 20:00N 29°37' W 090°41'0 0.0
2018-Feb-21 19:30N 29°37' W 090°41'0 0.4
2018-Feb-21 19:00N 29°36' W 090°41'1 1.4
2018-Feb-21 18:30N 29°36' W 090°40'0 0.0
2018-Feb-21 18:00N 29°36' W 090°40'0 0.0
2018-Feb-21 17:30N 29°36' W 090°40'2 5.0
2018-Feb-21 17:00N 29°35' W 090°38'3 5.0
2018-Feb-21 16:29N 29°35' W 090°35'3 5.5
2018-Feb-21 16:00N 29°34' W 090°32'3 0.1
2018-Feb-19 16:49N 29°35' W 090°35'1 4.9
2018-Feb-19 16:30N 29°35' W 090°37'2 5.0
2018-Feb-19 16:00N 29°36' W 090°40'2 4.4
2018-Feb-19 15:31N 29°37' W 090°42'2 4.1
2018-Feb-19 15:00N 29°35' W 090°43'2 3.6
2018-Feb-19 14:30N 29°34' W 090°45'1 1.1
2018-Feb-19 14:00N 29°33' W 090°45'0 0.2
2018-Feb-19 13:30N 29°33' W 090°45'0 0.1
2018-Feb-19 12:59N 29°33' W 090°45'0 0.3
2018-Feb-19 12:31N 29°33' W 090°45'1 2.4
2018-Feb-19 12:00N 29°32' W 090°46'3 5.6
2018-Feb-19 11:30N 29°32' W 090°49'66 4.2
2018-Feb-18 19:49N 29°49' W 092°02'2 5.0
2018-Feb-18 19:30N 29°49' W 092°04'3 5.0
2018-Feb-18 19:01N 29°48' W 092°06'3 5.1
2018-Feb-18 18:30N 29°47' W 092°09'3 5.3
2018-Feb-18 18:00N 29°47' W 092°12'3 5.6
2018-Feb-18 17:31N 29°48' W 092°15'3 4.9
2018-Feb-18 17:00N 29°50' W 092°18'40 3.3
2018-Feb-18 04:53N 29°56' W 093°04'2 3.9
2018-Feb-18 04:28N 29°56' W 093°05'2 4.0
2018-Feb-18 03:59N 29°56' W 093°08'3 4.2
2018-Feb-18 03:23N 29°57' W 093°10'2 4.5
2018-Feb-18 03:00N 29°58' W 093°12'2 4.6
2018-Feb-18 02:30N 29°60' W 093°13'2 3.4
2018-Feb-18 01:58N 30°02' W 093°14'0 0.5
2018-Feb-18 01:28N 30°02' W 093°15'1 2.7
2018-Feb-18 01:01N 30°03' W 093°16'1 2.3
2018-Feb-18 00:28N 30°04' W 093°16'2 4.0
2018-Feb-18 00:00N 30°05' W 093°17'2 3.4
2018-Feb-17 23:30N 30°06' W 093°19'2 4.6
2018-Feb-17 23:00N 30°04' W 093°21'2 4.1
2018-Feb-17 22:30N 30°04' W 093°23'2 4.6
2018-Feb-17 22:00N 30°04' W 093°26'3 5.0
2018-Feb-17 21:30N 30°04' W 093°29'3 5.2
2018-Feb-17 21:00N 30°04' W 093°32'4 5.1
2018-Feb-17 20:18N 30°04' W 093°36'5 4.9
2018-Feb-17 19:17N 30°03' W 093°42'2 5.0
2018-Feb-17 18:57N 30°03' W 093°44'2 4.9
2018-Feb-17 18:30N 30°01' W 093°45'2 4.9
2018-Feb-17 18:00N 29°59' W 093°47'3 5.8
2018-Feb-17 17:30N 29°58' W 093°50'2 3.6
2018-Feb-17 16:58N 29°57' W 093°52'0 1.0
2018-Feb-17 16:29N 29°57' W 093°52'0 0.2
2018-Feb-17 16:01N 29°57' W 093°52'0 0.6
2018-Feb-17 15:25N 29°58' W 093°52'0 0.0
2018-Feb-17 14:55N 29°58' W 093°52'0 0.0
2018-Feb-17 14:28N 29°58' W 093°52'0 0.0
2018-Feb-17 13:58N 29°58' W 093°52'0 0.0
2018-Feb-17 13:28N 29°58' W 093°52'0 0.0
2018-Feb-17 12:58N 29°58' W 093°52'0 0.0
2018-Feb-17 12:28N 29°58' W 093°52'0 0.0
2018-Feb-17 11:55N 29°58' W 093°52'0 0.0
2018-Feb-17 11:28N 29°58' W 093°52'0 0.0
2018-Feb-17 10:58N 29°58' W 093°52'0 0.0
2018-Feb-17 10:28N 29°58' W 093°52'0 0.0
2018-Feb-17 09:58N 29°58' W 093°52'0 0.0
2018-Feb-17 09:28N 29°58' W 093°52'0 0.0
2018-Feb-17 08:58N 29°58' W 093°52'0 0.0
2018-Feb-17 08:28N 29°58' W 093°52'0 0.0
2018-Feb-17 07:58N 29°58' W 093°52'0 0.0
2018-Feb-17 07:25N 29°58' W 093°52'0 0.0
2018-Feb-17 06:58N 29°58' W 093°52'0 0.0
2018-Feb-17 06:28N 29°58' W 093°52'0 0.0
2018-Feb-17 05:58N 29°58' W 093°52'0 0.0
2018-Feb-17 05:28N 29°58' W 093°52'0 0.0
2018-Feb-17 04:58N 29°58' W 093°52'0 0.0
2018-Feb-17 04:28N 29°58' W 093°52'0 0.0
2018-Feb-17 03:58N 29°58' W 093°52'0 0.0
2018-Feb-17 03:28N 29°58' W 093°52'0 0.0
2018-Feb-17 02:58N 29°58' W 093°52'0 0.0
2018-Feb-17 02:28N 29°58' W 093°52'0 0.0
2018-Feb-17 01:58N 29°58' W 093°52'0 0.0
2018-Feb-17 01:28N 29°58' W 093°52'0 0.0
2018-Feb-17 00:55N 29°58' W 093°52'0 0.0
2018-Feb-17 00:28N 29°58' W 093°52'0 0.0
2018-Feb-16 23:58N 29°58' W 093°52'0 0.0
2018-Feb-16 23:25N 29°58' W 093°52'0 0.1
2018-Feb-16 22:58N 29°58' W 093°52'0 0.0
2018-Feb-16 22:28N 29°58' W 093°52'0 0.0
2018-Feb-16 21:58N 29°58' W 093°52'0 0.0
2018-Feb-16 21:28N 29°58' W 093°52'0 0.0
2018-Feb-16 20:55N 29°58' W 093°52'0 0.0
2018-Feb-16 20:28N 29°58' W 093°52'0 0.0
2018-Feb-16 19:58N 29°58' W 093°52'0 0.0
2018-Feb-16 19:28N 29°58' W 093°52'0 0.0
2018-Feb-16 18:58N 29°58' W 093°52'0 0.0
2018-Feb-16 18:28N 29°58' W 093°52'0 0.0
2018-Feb-16 17:58N 29°58' W 093°52'0 0.0
2018-Feb-16 17:28N 29°58' W 093°52'0 0.0
2018-Feb-16 16:58N 29°58' W 093°52'0 0.0
2018-Feb-16 16:22N 29°58' W 093°52'0 0.0
2018-Feb-16 15:58N 29°58' W 093°52'0 0.0
2018-Feb-16 15:28N 29°58' W 093°52'0 0.0
2018-Feb-16 14:58N 29°58' W 093°52'0 0.0
2018-Feb-16 14:28N 29°58' W 093°52'0 0.0
2018-Feb-16 13:58N 29°58' W 093°52'1 1.0
2018-Feb-16 13:28N 29°57' W 093°52'0 0.8
2018-Feb-16 12:58N 29°57' W 093°52'0 0.1
2018-Feb-16 12:30N 29°57' W 093°52'0 0.0
2018-Feb-16 12:00N 29°57' W 093°52'0 0.0
2018-Feb-16 11:30N 29°57' W 093°52'0 0.0
2018-Feb-16 11:00N 29°57' W 093°52'0 0.0
2018-Feb-16 10:30N 29°57' W 093°52'0 0.0
2018-Feb-16 10:00N 29°57' W 093°52'0 0.0
2018-Feb-16 09:30N 29°57' W 093°52'0 0.0
2018-Feb-16 09:00N 29°57' W 093°52'0 0.0
2018-Feb-16 08:30N 29°57' W 093°52'0 0.0
2018-Feb-16 08:00N 29°57' W 093°52'0 0.0
2018-Feb-16 07:30N 29°57' W 093°52'0 0.0
2018-Feb-16 07:00N 29°57' W 093°52'0 0.0
2018-Feb-16 06:30N 29°57' W 093°52'0 0.0
2018-Feb-16 06:00N 29°57' W 093°52'0 0.0
2018-Feb-16 05:30N 29°57' W 093°52'0 0.0
2018-Feb-16 04:54N 29°57' W 093°52'0 0.0
2018-Feb-16 04:30N 29°57' W 093°52'0 0.0
2018-Feb-16 04:00N 29°57' W 093°52'0 0.0
2018-Feb-16 03:30N 29°57' W 093°52'0 0.0
2018-Feb-16 03:00N 29°57' W 093°52'0 0.9
2018-Feb-16 02:30N 29°57' W 093°52'1 1.2
2018-Feb-16 01:59N 29°57' W 093°52'2 3.4
2018-Feb-16 01:30N 29°59' W 093°53'3 4.9
2018-Feb-16 01:00N 29°59' W 093°55'2 4.6
2018-Feb-16 00:30N 30°01' W 093°57'1 2.6
2018-Feb-15 23:58N 30°01' W 093°59'0 0.2
2018-Feb-15 23:28N 30°01' W 093°59'0 0.0
2018-Feb-15 22:58N 30°01' W 093°59'0 0.0
2018-Feb-15 22:28N 30°01' W 093°59'0 0.0
2018-Feb-15 21:58N 30°01' W 093°59'0 0.0
2018-Feb-15 21:28N 30°01' W 093°59'0 0.0
2018-Feb-15 20:58N 30°01' W 093°59'0 0.0
2018-Feb-15 20:28N 30°01' W 093°59'0 0.0
2018-Feb-15 19:58N 30°01' W 093°59'0 0.0
2018-Feb-15 19:28N 30°01' W 093°59'0 0.0
2018-Feb-15 18:58N 30°01' W 093°59'0 0.0
2018-Feb-15 18:28N 30°01' W 093°59'0 0.0
2018-Feb-15 17:58N 30°01' W 093°59'0 0.0
2018-Feb-15 17:28N 30°01' W 093°59'0 0.0
2018-Feb-15 16:58N 30°01' W 093°59'0 0.0
2018-Feb-15 16:28N 30°01' W 093°59'0 0.0
2018-Feb-15 15:58N 30°01' W 093°59'0 0.0
2018-Feb-15 15:28N 30°01' W 093°59'0 0.0
2018-Feb-15 14:58N 30°01' W 093°59'0 0.0
2018-Feb-15 14:28N 30°01' W 093°59'0 0.0
2018-Feb-15 13:58N 30°01' W 093°59'0 0.0
2018-Feb-15 13:28N 30°01' W 093°59'0 0.0
2018-Feb-15 12:58N 30°01' W 093°59'0 0.0
2018-Feb-15 12:28N 30°01' W 093°59'0 0.0
2018-Feb-15 11:58N 30°01' W 093°59'0 0.0
2018-Feb-15 11:28N 30°01' W 093°59'0 0.0
2018-Feb-15 10:55N 30°01' W 093°59'0 0.0
2018-Feb-15 10:25N 30°01' W 093°59'0 0.0
2018-Feb-15 09:58N 30°01' W 093°59'0 0.0
2018-Feb-15 09:28N 30°01' W 093°59'0 0.0
2018-Feb-15 08:58N 30°01' W 093°59'0 0.0
2018-Feb-15 08:25N 30°01' W 093°59'0 0.0
2018-Feb-15 07:58N 30°01' W 093°59'0 0.0
2018-Feb-15 07:28N 30°01' W 093°59'0 0.0
2018-Feb-15 06:58N 30°01' W 093°59'0 0.0
2018-Feb-15 06:25N 30°01' W 093°59'0 0.0
2018-Feb-15 05:58N 30°01' W 093°59'0 0.0
2018-Feb-15 05:28N 30°01' W 093°59'0 0.0
2018-Feb-15 04:58N 30°01' W 093°59'0 0.0
2018-Feb-15 04:28N 30°01' W 093°59'0 0.0
2018-Feb-15 03:58N 30°01' W 093°59'0 0.0
2018-Feb-15 03:28N 30°01' W 093°59'0 0.0
2018-Feb-15 02:58N 30°01' W 093°59'0 0.0
2018-Feb-15 02:28N 30°01' W 093°59'0 0.0
2018-Feb-15 01:58N 30°01' W 093°59'0 0.0
2018-Feb-15 01:28N 30°01' W 093°59'0 0.0
2018-Feb-15 00:58N 30°01' W 093°59'0 0.0
2018-Feb-15 00:28N 30°01' W 093°59'0 0.0
2018-Feb-14 23:58N 30°01' W 093°59'0 0.0
2018-Feb-14 23:28N 30°01' W 093°59'0 0.0
2018-Feb-14 22:55N 30°01' W 093°59'0 0.0
2018-Feb-14 22:28N 30°01' W 093°59'0 0.0
2018-Feb-14 21:58N 30°01' W 093°59'0 0.0
2018-Feb-14 21:28N 30°01' W 093°59'0 0.0
2018-Feb-14 20:58N 30°01' W 093°59'0 0.0
2018-Feb-14 20:28N 30°01' W 093°59'0 0.0
2018-Feb-14 19:58N 30°01' W 093°59'1 1.1
2018-Feb-14 19:29N 30°01' W 093°59'0 0.0
2018-Feb-14 18:59N 30°01' W 093°59'0 0.0
2018-Feb-14 18:26N 30°01' W 093°59'0 0.0
2018-Feb-14 17:59N 30°01' W 093°59'0 0.0
2018-Feb-14 17:29N 30°01' W 093°59'0 0.0
2018-Feb-14 16:59N 30°01' W 093°59'0 0.0
2018-Feb-14 16:29N 30°01' W 093°59'0 0.0
2018-Feb-14 15:59N 30°01' W 093°59'0 0.0
2018-Feb-14 15:26N 30°01' W 093°59'0 0.0
2018-Feb-14 14:56N 30°01' W 093°59'0 0.0
2018-Feb-14 14:29N 30°01' W 093°59'0 0.0
2018-Feb-14 13:56N 30°01' W 093°59'0 0.0
2018-Feb-14 13:29N 30°01' W 093°59'0 0.0
2018-Feb-14 12:59N 30°01' W 093°59'0 0.0
2018-Feb-14 12:29N 30°01' W 093°59'0 0.0
2018-Feb-14 11:59N 30°01' W 093°59'0 0.0
2018-Feb-14 11:29N 30°01' W 093°59'0 0.0
2018-Feb-14 10:59N 30°01' W 093°59'0 0.0
2018-Feb-14 10:29N 30°01' W 093°59'0 0.0
2018-Feb-14 09:59N 30°01' W 093°59'0 0.0
2018-Feb-14 09:29N 30°01' W 093°59'0 0.0
2018-Feb-14 08:59N 30°01' W 093°59'0 0.0
2018-Feb-14 08:29N 30°01' W 093°59'0 0.0
2018-Feb-14 07:59N 30°01' W 093°59'0 0.0
2018-Feb-14 07:29N 30°01' W 093°59'0 0.0
2018-Feb-14 06:59N 30°01' W 093°59'0 0.0
2018-Feb-14 06:29N 30°01' W 093°59'0 0.0
2018-Feb-14 05:59N 30°01' W 093°59'0 0.0
2018-Feb-14 05:29N 30°01' W 093°59'0 0.0
2018-Feb-14 04:59N 30°01' W 093°59'0 0.0
2018-Feb-14 04:29N 30°01' W 093°59'0 0.0
2018-Feb-14 03:59N 30°01' W 093°59'0 0.0
2018-Feb-14 03:29N 30°01' W 093°59'0 0.0
2018-Feb-14 02:59N 30°01' W 093°59'0 0.0
2018-Feb-14 02:29N 30°01' W 093°59'1 2.6
2018-Feb-14 02:00N 30°01' W 094°01'1 2.2
2018-Feb-14 01:28N 30°02' W 094°02'0 0.0
2018-Feb-14 00:59N 30°02' W 094°02'0 0.0
2018-Feb-14 00:29N 30°02' W 094°02'0 0.0
2018-Feb-13 23:59N 30°02' W 094°02'0 0.0
2018-Feb-13 23:28N 30°02' W 094°02'0 0.0
2018-Feb-13 22:59N 30°02' W 094°02'0 0.0
2018-Feb-13 22:29N 30°02' W 094°02'0 0.0
2018-Feb-13 21:59N 30°02' W 094°02'0 0.0
2018-Feb-13 21:28N 30°02' W 094°02'0 0.0
2018-Feb-13 20:58N 30°02' W 094°02'0 0.0
2018-Feb-13 20:28N 30°02' W 094°02'0 0.0
2018-Feb-13 19:59N 30°02' W 094°02'0 0.0
2018-Feb-13 19:28N 30°02' W 094°02'0 0.0
2018-Feb-13 18:59N 30°02' W 094°02'0 0.0
2018-Feb-13 18:28N 30°02' W 094°02'0 0.0
2018-Feb-13 17:58N 30°02' W 094°02'0 0.0
2018-Feb-13 17:29N 30°02' W 094°02'0 0.0
2018-Feb-13 16:58N 30°02' W 094°02'0 0.0
2018-Feb-13 16:25N 30°02' W 094°02'0 0.0
2018-Feb-13 15:58N 30°02' W 094°02'0 0.0
2018-Feb-13 15:29N 30°02' W 094°02'0 0.0
2018-Feb-13 14:58N 30°02' W 094°02'0 0.0
2018-Feb-13 14:28N 30°02' W 094°02'0 0.0
2018-Feb-13 13:59N 30°02' W 094°02'0 0.0
2018-Feb-13 13:28N 30°02' W 094°02'0 0.0
2018-Feb-13 12:58N 30°02' W 094°02'0 0.0
2018-Feb-13 12:28N 30°02' W 094°02'0 0.0
2018-Feb-13 11:58N 30°02' W 094°02'0 0.0
2018-Feb-13 11:28N 30°02' W 094°02'0 0.0
2018-Feb-13 10:58N 30°02' W 094°02'0 0.0
2018-Feb-13 10:28N 30°02' W 094°02'0 0.0
2018-Feb-13 09:58N 30°02' W 094°02'0 0.0
2018-Feb-13 09:28N 30°02' W 094°02'0 0.0
2018-Feb-13 08:55N 30°02' W 094°02'0 0.0
2018-Feb-13 08:28N 30°02' W 094°02'0 0.0
2018-Feb-13 07:58N 30°02' W 094°02'0 0.0
2018-Feb-13 07:28N 30°02' W 094°02'0 0.0
2018-Feb-13 06:58N 30°02' W 094°02'0 0.0
2018-Feb-13 06:28N 30°02' W 094°02'0 0.0
2018-Feb-13 05:58N 30°02' W 094°02'0 0.0
2018-Feb-13 05:28N 30°02' W 094°02'0 0.0
2018-Feb-13 04:58N 30°02' W 094°02'0 0.0
2018-Feb-13 04:25N 30°02' W 094°02'0 0.0
2018-Feb-13 03:58N 30°02' W 094°02'0 0.0
2018-Feb-13 03:28N 30°02' W 094°02'0 0.0
2018-Feb-13 02:58N 30°02' W 094°02'0 0.0
2018-Feb-13 02:25N 30°02' W 094°02'0 0.0
2018-Feb-13 01:58N 30°02' W 094°02'0 0.0
2018-Feb-13 01:28N 30°02' W 094°02'0 0.0
2018-Feb-13 00:58N 30°02' W 094°02'0 0.0
2018-Feb-13 00:28N 30°02' W 094°02'0 0.0
2018-Feb-12 23:58N 30°02' W 094°02'0 0.0
2018-Feb-12 23:28N 30°02' W 094°02'0 0.0
2018-Feb-12 22:58N 30°02' W 094°02'0 0.0
2018-Feb-12 22:28N 30°02' W 094°02'0 0.0
2018-Feb-12 21:58N 30°02' W 094°02'0 0.0
2018-Feb-12 21:28N 30°02' W 094°02'0 0.0
2018-Feb-12 20:58N 30°02' W 094°02'0 0.0
2018-Feb-12 20:28N 30°02' W 094°02'0 0.0
2018-Feb-12 19:58N 30°02' W 094°02'0 0.0
2018-Feb-12 19:28N 30°02' W 094°02'0 0.0
2018-Feb-12 18:58N 30°02' W 094°02'0 0.0
2018-Feb-12 18:28N 30°02' W 094°02'0 0.0
2018-Feb-12 17:58N 30°02' W 094°02'0 0.0
2018-Feb-12 17:28N 30°02' W 094°02'0 0.0
2018-Feb-12 16:58N 30°02' W 094°02'0 0.0
2018-Feb-12 16:25N 30°02' W 094°02'0 0.0
2018-Feb-12 15:58N 30°02' W 094°02'0 0.0
2018-Feb-12 15:28N 30°02' W 094°02'0 0.0
2018-Feb-12 14:58N 30°02' W 094°02'0 0.0
2018-Feb-12 14:28N 30°02' W 094°02'0 0.0
2018-Feb-12 13:58N 30°02' W 094°02'0 0.0
2018-Feb-12 13:28N 30°02' W 094°02'0 0.0
2018-Feb-12 12:58N 30°02' W 094°02'0 0.0
2018-Feb-12 12:28N 30°02' W 094°02'0 0.0
2018-Feb-12 11:58N 30°02' W 094°02'0 0.0
2018-Feb-12 11:28N 30°02' W 094°02'0 0.0
2018-Feb-12 10:55N 30°02' W 094°02'0 0.0
2018-Feb-12 10:28N 30°02' W 094°02'0 0.0
2018-Feb-12 09:58N 30°02' W 094°02'0 0.0
2018-Feb-12 09:28N 30°02' W 094°02'0 0.0
2018-Feb-12 08:58N 30°02' W 094°02'0 0.1
2018-Feb-12 08:28N 30°02' W 094°02'0 0.6
2018-Feb-12 07:58N 30°02' W 094°02'1 2.8
2018-Feb-12 07:30N 30°01' W 094°00'2 4.5
2018-Feb-12 07:00N 30°01' W 093°58'2 4.2
2018-Feb-12 06:30N 29°60' W 093°56'2 4.8
2018-Feb-12 06:00N 29°59' W 093°53'2 4.0
2018-Feb-12 05:30N 29°58' W 093°51'1 1.7
2018-Feb-12 05:00N 29°57' W 093°52'0 0.7
2018-Feb-12 04:29N 29°57' W 093°52'0 0.0
2018-Feb-12 03:59N 29°57' W 093°52'0 0.2
2018-Feb-12 03:26N 29°57' W 093°52'0 0.6
2018-Feb-12 03:01N 29°57' W 093°52'0 0.4
2018-Feb-12 02:28N 29°58' W 093°52'0 0.5
2018-Feb-12 01:58N 29°57' W 093°52'  
Track history (hours):
 
Tides and Currents Weather Stations Pressure Air Temp Water Temp Dewpoint Dewpoint Depression Visibility Wind Speed Wind Dir Waves Ship Positions

Ems Express

Owner: Marquette Transportation Company Gulf-Inland, LLC, Jefferson, LA. More information available from US FCC via Universal Licensing System and Coast Guard Vessel Documentation Center.

Last reported at 2018-Feb-22 01:40 UTC. Time now 2018-Feb-22 03:05 UTC.
Position N 29°32' W 090°50'.

Length 22 m; draft 2.7 m.

Type: . MMSI: 367059310.

Date/timePositionNaut miles runAvg speedWind from/ knotsBaromVisibWave heightAir tempDewpointWater temp
2018-Feb-22 01:40N 29°32' W 090°50'2 6.3
2018-Feb-22 01:20N 29°32' W 090°47'2 5.5
2018-Feb-22 01:00N 29°33' W 090°45'3 5.2
2018-Feb-22 00:30N 29°34' W 090°43'2 3.4
2018-Feb-22 00:00N 29°36' W 090°43'1 2.6
2018-Feb-21 23:30N 29°37' W 090°41'0 0.0
2018-Feb-21 23:00N 29°37' W 090°41'0 0.0
2018-Feb-21 22:30N 29°37' W 090°41'0 0.0
2018-Feb-21 22:00N 29°37' W 090°41'0 0.0
2018-Feb-21 21:30N 29°37' W 090°41'0 0.0
2018-Feb-21 21:00N 29°37' W 090°41'0 0.0
2018-Feb-21 20:30N 29°37' W 090°41'0 0.0
2018-Feb-21 20:00N 29°37' W 090°41'0 0.0
2018-Feb-21 19:30N 29°37' W 090°41'0 0.4
2018-Feb-21 19:00N 29°36' W 090°41'1 1.4
2018-Feb-21 18:30N 29°36' W 090°40'0 0.0
2018-Feb-21 18:00N 29°36' W 090°40'0 0.0
2018-Feb-21 17:30N 29°36' W 090°40'2 5.0
2018-Feb-21 17:00N 29°35' W 090°38'3 5.0
2018-Feb-21 16:29N 29°35' W 090°35'3 5.5
2018-Feb-21 16:00N 29°34' W 090°32'3 0.1
2018-Feb-19 16:49N 29°35' W 090°35'1 4.9
2018-Feb-19 16:30N 29°35' W 090°37'2 5.0
2018-Feb-19 16:00N 29°36' W 090°40'2 4.4
2018-Feb-19 15:31N 29°37' W 090°42'2 4.1
2018-Feb-19 15:00N 29°35' W 090°43'2 3.6
2018-Feb-19 14:30N 29°34' W 090°45'1 1.1
2018-Feb-19 14:00N 29°33' W 090°45'0 0.2
2018-Feb-19 13:30N 29°33' W 090°45'0 0.1
2018-Feb-19 12:59N 29°33' W 090°45'0 0.3
2018-Feb-19 12:31N 29°33' W 090°45'1 2.4
2018-Feb-19 12:00N 29°32' W 090°46'3 5.6
2018-Feb-19 11:30N 29°32' W 090°49'66 4.2
2018-Feb-18 19:49N 29°49' W 092°02'2 5.0
2018-Feb-18 19:30N 29°49' W 092°04'3 5.0
2018-Feb-18 19:01N 29°48' W 092°06'3 5.1
2018-Feb-18 18:30N 29°47' W 092°09'3 5.3
2018-Feb-18 18:00N 29°47' W 092°12'3 5.6
2018-Feb-18 17:31N 29°48' W 092°15'3 4.9
2018-Feb-18 17:00N 29°50' W 092°18'40 3.3
2018-Feb-18 04:53N 29°56' W 093°04'2 3.9
2018-Feb-18 04:28N 29°56' W 093°05'2 4.0
2018-Feb-18 03:59N 29°56' W 093°08'3 4.2
2018-Feb-18 03:23N 29°57' W 093°10'2 4.5
2018-Feb-18 03:00N 29°58' W 093°12'2 4.6
2018-Feb-18 02:30N 29°60' W 093°13'2 3.4
2018-Feb-18 01:58N 30°02' W 093°14'0 0.5
2018-Feb-18 01:28N 30°02' W 093°15'1 2.7
2018-Feb-18 01:01N 30°03' W 093°16'1 2.3
2018-Feb-18 00:28N 30°04' W 093°16'2 4.0
2018-Feb-18 00:00N 30°05' W 093°17'2 3.4
2018-Feb-17 23:30N 30°06' W 093°19'2 4.6
2018-Feb-17 23:00N 30°04' W 093°21'2 4.1
2018-Feb-17 22:30N 30°04' W 093°23'2 4.6
2018-Feb-17 22:00N 30°04' W 093°26'3 5.0
2018-Feb-17 21:30N 30°04' W 093°29'3 5.2
2018-Feb-17 21:00N 30°04' W 093°32'4 5.1
2018-Feb-17 20:18N 30°04' W 093°36'5 4.9
2018-Feb-17 19:17N 30°03' W 093°42'2 5.0
2018-Feb-17 18:57N 30°03' W 093°44'2 4.9
2018-Feb-17 18:30N 30°01' W 093°45'2 4.9
2018-Feb-17 18:00N 29°59' W 093°47'3 5.8
2018-Feb-17 17:30N 29°58' W 093°50'2 3.6
2018-Feb-17 16:58N 29°57' W 093°52'0 1.0
2018-Feb-17 16:29N 29°57' W 093°52'0 0.2
2018-Feb-17 16:01N 29°57' W 093°52'0 0.6
2018-Feb-17 15:25N 29°58' W 093°52'0 0.0
2018-Feb-17 14:55N 29°58' W 093°52'0 0.0
2018-Feb-17 14:28N 29°58' W 093°52'0 0.0
2018-Feb-17 13:58N 29°58' W 093°52'0 0.0
2018-Feb-17 13:28N 29°58' W 093°52'0 0.0
2018-Feb-17 12:58N 29°58' W 093°52'0 0.0
2018-Feb-17 12:28N 29°58' W 093°52'0 0.0
2018-Feb-17 11:55N 29°58' W 093°52'0 0.0
2018-Feb-17 11:28N 29°58' W 093°52'0 0.0
2018-Feb-17 10:58N 29°58' W 093°52'0 0.0
2018-Feb-17 10:28N 29°58' W 093°52'0 0.0
2018-Feb-17 09:58N 29°58' W 093°52'0 0.0
2018-Feb-17 09:28N 29°58' W 093°52'0 0.0
2018-Feb-17 08:58N 29°58' W 093°52'0 0.0
2018-Feb-17 08:28N 29°58' W 093°52'0 0.0
2018-Feb-17 07:58N 29°58' W 093°52'0 0.0
2018-Feb-17 07:25N 29°58' W 093°52'0 0.0
2018-Feb-17 06:58N 29°58' W 093°52'0 0.0
2018-Feb-17 06:28N 29°58' W 093°52'0 0.0
2018-Feb-17 05:58N 29°58' W 093°52'0 0.0
2018-Feb-17 05:28N 29°58' W 093°52'0 0.0
2018-Feb-17 04:58N 29°58' W 093°52'0 0.0
2018-Feb-17 04:28N 29°58' W 093°52'0 0.0
2018-Feb-17 03:58N 29°58' W 093°52'0 0.0
2018-Feb-17 03:28N 29°58' W 093°52'0 0.0
2018-Feb-17 02:58N 29°58' W 093°52'0 0.0
2018-Feb-17 02:28N 29°58' W 093°52'0 0.0
2018-Feb-17 01:58N 29°58' W 093°52'0 0.0
2018-Feb-17 01:28N 29°58' W 093°52'0 0.0
2018-Feb-17 00:55N 29°58' W 093°52'0 0.0
2018-Feb-17 00:28N 29°58' W 093°52'0 0.0
2018-Feb-16 23:58N 29°58' W 093°52'0 0.0
2018-Feb-16 23:25N 29°58' W 093°52'0 0.1
2018-Feb-16 22:58N 29°58' W 093°52'0 0.0
2018-Feb-16 22:28N 29°58' W 093°52'0 0.0
2018-Feb-16 21:58N 29°58' W 093°52'0 0.0
2018-Feb-16 21:28N 29°58' W 093°52'0 0.0
2018-Feb-16 20:55N 29°58' W 093°52'0 0.0
2018-Feb-16 20:28N 29°58' W 093°52'0 0.0
2018-Feb-16 19:58N 29°58' W 093°52'0 0.0
2018-Feb-16 19:28N 29°58' W 093°52'0 0.0
2018-Feb-16 18:58N 29°58' W 093°52'0 0.0
2018-Feb-16 18:28N 29°58' W 093°52'0 0.0
2018-Feb-16 17:58N 29°58' W 093°52'0 0.0
2018-Feb-16 17:28N 29°58' W 093°52'0 0.0
2018-Feb-16 16:58N 29°58' W 093°52'0 0.0
2018-Feb-16 16:22N 29°58' W 093°52'0 0.0
2018-Feb-16 15:58N 29°58' W 093°52'0 0.0
2018-Feb-16 15:28N 29°58' W 093°52'0 0.0
2018-Feb-16 14:58N 29°58' W 093°52'0 0.0
2018-Feb-16 14:28N 29°58' W 093°52'0 0.0
2018-Feb-16 13:58N 29°58' W 093°52'1 1.0
2018-Feb-16 13:28N 29°57' W 093°52'0 0.8
2018-Feb-16 12:58N 29°57' W 093°52'0 0.1
2018-Feb-16 12:30N 29°57' W 093°52'0 0.0
2018-Feb-16 12:00N 29°57' W 093°52'0 0.0
2018-Feb-16 11:30N 29°57' W 093°52'0 0.0
2018-Feb-16 11:00N 29°57' W 093°52'0 0.0
2018-Feb-16 10:30N 29°57' W 093°52'0 0.0
2018-Feb-16 10:00N 29°57' W 093°52'0 0.0
2018-Feb-16 09:30N 29°57' W 093°52'0 0.0
2018-Feb-16 09:00N 29°57' W 093°52'0 0.0
2018-Feb-16 08:30N 29°57' W 093°52'0 0.0
2018-Feb-16 08:00N 29°57' W 093°52'0 0.0
2018-Feb-16 07:30N 29°57' W 093°52'0 0.0
2018-Feb-16 07:00N 29°57' W 093°52'0 0.0
2018-Feb-16 06:30N 29°57' W 093°52'0 0.0
2018-Feb-16 06:00N 29°57' W 093°52'0 0.0
2018-Feb-16 05:30N 29°57' W 093°52'0 0.0
2018-Feb-16 04:54N 29°57' W 093°52'0 0.0
2018-Feb-16 04:30N 29°57' W 093°52'0 0.0
2018-Feb-16 04:00N 29°57' W 093°52'0 0.0
2018-Feb-16 03:30N 29°57' W 093°52'0 0.0
2018-Feb-16 03:00N 29°57' W 093°52'0 0.9
2018-Feb-16 02:30N 29°57' W 093°52'1 1.2
2018-Feb-16 01:59N 29°57' W 093°52'2 3.4
2018-Feb-16 01:30N 29°59' W 093°53'3 4.9
2018-Feb-16 01:00N 29°59' W 093°55'2 4.6
2018-Feb-16 00:30N 30°01' W 093°57'1 2.6
2018-Feb-15 23:58N 30°01' W 093°59'0 0.2
2018-Feb-15 23:28N 30°01' W 093°59'0 0.0
2018-Feb-15 22:58N 30°01' W 093°59'0 0.0
2018-Feb-15 22:28N 30°01' W 093°59'0 0.0
2018-Feb-15 21:58N 30°01' W 093°59'0 0.0
2018-Feb-15 21:28N 30°01' W 093°59'0 0.0
2018-Feb-15 20:58N 30°01' W 093°59'0 0.0
2018-Feb-15 20:28N 30°01' W 093°59'0 0.0
2018-Feb-15 19:58N 30°01' W 093°59'0 0.0
2018-Feb-15 19:28N 30°01' W 093°59'0 0.0
2018-Feb-15 18:58N 30°01' W 093°59'0 0.0
2018-Feb-15 18:28N 30°01' W 093°59'0 0.0
2018-Feb-15 17:58N 30°01' W 093°59'0 0.0
2018-Feb-15 17:28N 30°01' W 093°59'0 0.0
2018-Feb-15 16:58N 30°01' W 093°59'0 0.0
2018-Feb-15 16:28N 30°01' W 093°59'0 0.0
2018-Feb-15 15:58N 30°01' W 093°59'0 0.0
2018-Feb-15 15:28N 30°01' W 093°59'0 0.0
2018-Feb-15 14:58N 30°01' W 093°59'0 0.0
2018-Feb-15 14:28N 30°01' W 093°59'0 0.0
2018-Feb-15 13:58N 30°01' W 093°59'0 0.0
2018-Feb-15 13:28N 30°01' W 093°59'0 0.0
2018-Feb-15 12:58N 30°01' W 093°59'0 0.0
2018-Feb-15 12:28N 30°01' W 093°59'0 0.0
2018-Feb-15 11:58N 30°01' W 093°59'0 0.0
2018-Feb-15 11:28N 30°01' W 093°59'0 0.0
2018-Feb-15 10:55N 30°01' W 093°59'0 0.0
2018-Feb-15 10:25N 30°01' W 093°59'0 0.0
2018-Feb-15 09:58N 30°01' W 093°59'0 0.0
2018-Feb-15 09:28N 30°01' W 093°59'0 0.0
2018-Feb-15 08:58N 30°01' W 093°59'0 0.0
2018-Feb-15 08:25N 30°01' W 093°59'0 0.0
2018-Feb-15 07:58N 30°01' W 093°59'0 0.0
2018-Feb-15 07:28N 30°01' W 093°59'0 0.0
2018-Feb-15 06:58N 30°01' W 093°59'0 0.0
2018-Feb-15 06:25N 30°01' W 093°59'0 0.0
2018-Feb-15 05:58N 30°01' W 093°59'0 0.0
2018-Feb-15 05:28N 30°01' W 093°59'0 0.0
2018-Feb-15 04:58N 30°01' W 093°59'0 0.0
2018-Feb-15 04:28N 30°01' W 093°59'0 0.0
2018-Feb-15 03:58N 30°01' W 093°59'0 0.0
2018-Feb-15 03:28N 30°01' W 093°59'0 0.0
2018-Feb-15 02:58N 30°01' W 093°59'0 0.0
2018-Feb-15 02:28N 30°01' W 093°59'0 0.0
2018-Feb-15 01:58N 30°01' W 093°59'0 0.0
2018-Feb-15 01:28N 30°01' W 093°59'0 0.0
2018-Feb-15 00:58N 30°01' W 093°59'0 0.0
2018-Feb-15 00:28N 30°01' W 093°59'0 0.0
2018-Feb-14 23:58N 30°01' W 093°59'0 0.0
2018-Feb-14 23:28N 30°01' W 093°59'0 0.0
2018-Feb-14 22:55N 30°01' W 093°59'0 0.0
2018-Feb-14 22:28N 30°01' W 093°59'0 0.0
2018-Feb-14 21:58N 30°01' W 093°59'0 0.0
2018-Feb-14 21:28N 30°01' W 093°59'0 0.0
2018-Feb-14 20:58N 30°01' W 093°59'0 0.0
2018-Feb-14 20:28N 30°01' W 093°59'0 0.0
2018-Feb-14 19:58N 30°01' W 093°59'1 1.1
2018-Feb-14 19:29N 30°01' W 093°59'0 0.0
2018-Feb-14 18:59N 30°01' W 093°59'0 0.0
2018-Feb-14 18:26N 30°01' W 093°59'0 0.0
2018-Feb-14 17:59N 30°01' W 093°59'0 0.0
2018-Feb-14 17:29N 30°01' W 093°59'0 0.0
2018-Feb-14 16:59N 30°01' W 093°59'0 0.0
2018-Feb-14 16:29N 30°01' W 093°59'0 0.0
2018-Feb-14 15:59N 30°01' W 093°59'0 0.0
2018-Feb-14 15:26N 30°01' W 093°59'0 0.0
2018-Feb-14 14:56N 30°01' W 093°59'0 0.0
2018-Feb-14 14:29N 30°01' W 093°59'0 0.0
2018-Feb-14 13:56N 30°01' W 093°59'0 0.0
2018-Feb-14 13:29N 30°01' W 093°59'0 0.0
2018-Feb-14 12:59N 30°01' W 093°59'0 0.0
2018-Feb-14 12:29N 30°01' W 093°59'0 0.0
2018-Feb-14 11:59N 30°01' W 093°59'0 0.0
2018-Feb-14 11:29N 30°01' W 093°59'0 0.0
2018-Feb-14 10:59N 30°01' W 093°59'0 0.0
2018-Feb-14 10:29N 30°01' W 093°59'0 0.0
2018-Feb-14 09:59N 30°01' W 093°59'0 0.0
2018-Feb-14 09:29N 30°01' W 093°59'0 0.0
2018-Feb-14 08:59N 30°01' W 093°59'0 0.0
2018-Feb-14 08:29N 30°01' W 093°59'0 0.0
2018-Feb-14 07:59N 30°01' W 093°59'0 0.0
2018-Feb-14 07:29N 30°01' W 093°59'0 0.0
2018-Feb-14 06:59N 30°01' W 093°59'0 0.0
2018-Feb-14 06:29N 30°01' W 093°59'0 0.0
2018-Feb-14 05:59N 30°01' W 093°59'0 0.0
2018-Feb-14 05:29N 30°01' W 093°59'0 0.0
2018-Feb-14 04:59N 30°01' W 093°59'0 0.0
2018-Feb-14 04:29N 30°01' W 093°59'0 0.0
2018-Feb-14 03:59N 30°01' W 093°59'0 0.0
2018-Feb-14 03:29N 30°01' W 093°59'0 0.0
2018-Feb-14 02:59N 30°01' W 093°59'0 0.0
2018-Feb-14 02:29N 30°01' W 093°59'1 2.6
2018-Feb-14 02:00N 30°01' W 094°01'1 2.2
2018-Feb-14 01:28N 30°02' W 094°02'0 0.0
2018-Feb-14 00:59N 30°02' W 094°02'0 0.0
2018-Feb-14 00:29N 30°02' W 094°02'0 0.0
2018-Feb-13 23:59N 30°02' W 094°02'0 0.0
2018-Feb-13 23:28N 30°02' W 094°02'0 0.0
2018-Feb-13 22:59N 30°02' W 094°02'0 0.0
2018-Feb-13 22:29N 30°02' W 094°02'0 0.0
2018-Feb-13 21:59N 30°02' W 094°02'0 0.0
2018-Feb-13 21:28N 30°02' W 094°02'0 0.0
2018-Feb-13 20:58N 30°02' W 094°02'0 0.0
2018-Feb-13 20:28N 30°02' W 094°02'0 0.0
2018-Feb-13 19:59N 30°02' W 094°02'0 0.0
2018-Feb-13 19:28N 30°02' W 094°02'0 0.0
2018-Feb-13 18:59N 30°02' W 094°02'0 0.0
2018-Feb-13 18:28N 30°02' W 094°02'0 0.0
2018-Feb-13 17:58N 30°02' W 094°02'0 0.0
2018-Feb-13 17:29N 30°02' W 094°02'0 0.0
2018-Feb-13 16:58N 30°02' W 094°02'0 0.0
2018-Feb-13 16:25N 30°02' W 094°02'0 0.0
2018-Feb-13 15:58N 30°02' W 094°02'0 0.0
2018-Feb-13 15:29N 30°02' W 094°02'0 0.0
2018-Feb-13 14:58N 30°02' W 094°02'0 0.0
2018-Feb-13 14:28N 30°02' W 094°02'0 0.0
2018-Feb-13 13:59N 30°02' W 094°02'0 0.0
2018-Feb-13 13:28N 30°02' W 094°02'0 0.0
2018-Feb-13 12:58N 30°02' W 094°02'0 0.0
2018-Feb-13 12:28N 30°02' W 094°02'0 0.0
2018-Feb-13 11:58N 30°02' W 094°02'0 0.0
2018-Feb-13 11:28N 30°02' W 094°02'0 0.0
2018-Feb-13 10:58N 30°02' W 094°02'0 0.0
2018-Feb-13 10:28N 30°02' W 094°02'0 0.0
2018-Feb-13 09:58N 30°02' W 094°02'0 0.0
2018-Feb-13 09:28N 30°02' W 094°02'0 0.0
2018-Feb-13 08:55N 30°02' W 094°02'0 0.0
2018-Feb-13 08:28N 30°02' W 094°02'0 0.0
2018-Feb-13 07:58N 30°02' W 094°02'0 0.0
2018-Feb-13 07:28N 30°02' W 094°02'0 0.0
2018-Feb-13 06:58N 30°02' W 094°02'0 0.0
2018-Feb-13 06:28N 30°02' W 094°02'0 0.0
2018-Feb-13 05:58N 30°02' W 094°02'0 0.0
2018-Feb-13 05:28N 30°02' W 094°02'0 0.0
2018-Feb-13 04:58N 30°02' W 094°02'0 0.0
2018-Feb-13 04:25N 30°02' W 094°02'0 0.0
2018-Feb-13 03:58N 30°02' W 094°02'0 0.0
2018-Feb-13 03:28N 30°02' W 094°02'0 0.0
2018-Feb-13 02:58N 30°02' W 094°02'0 0.0
2018-Feb-13 02:25N 30°02' W 094°02'0 0.0
2018-Feb-13 01:58N 30°02' W 094°02'0 0.0
2018-Feb-13 01:28N 30°02' W 094°02'0 0.0
2018-Feb-13 00:58N 30°02' W 094°02'0 0.0
2018-Feb-13 00:28N 30°02' W 094°02'0 0.0
2018-Feb-12 23:58N 30°02' W 094°02'0 0.0
2018-Feb-12 23:28N 30°02' W 094°02'0 0.0
2018-Feb-12 22:58N 30°02' W 094°02'0 0.0
2018-Feb-12 22:28N 30°02' W 094°02'0 0.0
2018-Feb-12 21:58N 30°02' W 094°02'0 0.0
2018-Feb-12 21:28N 30°02' W 094°02'0 0.0
2018-Feb-12 20:58N 30°02' W 094°02'0 0.0
2018-Feb-12 20:28N 30°02' W 094°02'0 0.0
2018-Feb-12 19:58N 30°02' W 094°02'0 0.0
2018-Feb-12 19:28N 30°02' W 094°02'0 0.0
2018-Feb-12 18:58N 30°02' W 094°02'0 0.0
2018-Feb-12 18:28N 30°02' W 094°02'0 0.0
2018-Feb-12 17:58N 30°02' W 094°02'0 0.0
2018-Feb-12 17:28N 30°02' W 094°02'0 0.0
2018-Feb-12 16:58N 30°02' W 094°02'0 0.0
2018-Feb-12 16:25N 30°02' W 094°02'0 0.0
2018-Feb-12 15:58N 30°02' W 094°02'0 0.0
2018-Feb-12 15:28N 30°02' W 094°02'0 0.0
2018-Feb-12 14:58N 30°02' W 094°02'0 0.0
2018-Feb-12 14:28N 30°02' W 094°02'0 0.0
2018-Feb-12 13:58N 30°02' W 094°02'0 0.0
2018-Feb-12 13:28N 30°02' W 094°02'0 0.0
2018-Feb-12 12:58N 30°02' W 094°02'0 0.0
2018-Feb-12 12:28N 30°02' W 094°02'0 0.0
2018-Feb-12 11:58N 30°02' W 094°02'0 0.0
2018-Feb-12 11:28N 30°02' W 094°02'0 0.0
2018-Feb-12 10:55N 30°02' W 094°02'0 0.0
2018-Feb-12 10:28N 30°02' W 094°02'0 0.0
2018-Feb-12 09:58N 30°02' W 094°02'0 0.0
2018-Feb-12 09:28N 30°02' W 094°02'0 0.0
2018-Feb-12 08:58N 30°02' W 094°02'0 0.1
2018-Feb-12 08:28N 30°02' W 094°02'0 0.6
2018-Feb-12 07:58N 30°02' W 094°02'1 2.8
2018-Feb-12 07:30N 30°01' W 094°00'2 4.5
2018-Feb-12 07:00N 30°01' W 093°58'2 4.2
2018-Feb-12 06:30N 29°60' W 093°56'2 4.8
2018-Feb-12 06:00N 29°59' W 093°53'2 4.0
2018-Feb-12 05:30N 29°58' W 093°51'1 1.7
2018-Feb-12 05:00N 29°57' W 093°52'0 0.7
2018-Feb-12 04:29N 29°57' W 093°52'0 0.0
2018-Feb-12 03:59N 29°57' W 093°52'0 0.2
2018-Feb-12 03:26N 29°57' W 093°52'0 0.6
2018-Feb-12 03:01N 29°57' W 093°52'0 0.4
2018-Feb-12 02:28N 29°58' W 093°52'0 0.5
2018-Feb-12 01:58N 29°57' W 093°52'  

Dump ship's entire track history